Sheng Jia 1 — XUGG7 — position and weather

sailwx.info

Track history (hours):
 
Tides and Currents Weather Stations Pressure Air Temp Water Temp Dewpoint Dewpoint Depression Visibility Wind Speed Wind Dir Waves Ship Positions

Sheng Jia 1

Last reported at 2014-Sep-03 06:33 UTC. Time now 2014-Sep-03 07:06 UTC.
Position N 35°34' E 140°00'.

Length 73 m; draft 3.5 m.

Type: Cargo ship. MMSI: 515744000.

Date/timePositionNaut miles runAvg speedWind from/ knotsBaromVisibWave heightAir tempDewpointWater temp
2014-Sep-03 06:33N 35°34' E 140°00'0 0.0
2014-Sep-03 05:33N 35°34' E 140°00'0 0.0
2014-Sep-03 04:33N 35°34' E 140°00'0 0.0
2014-Sep-03 03:33N 35°34' E 140°01'0 0.0
2014-Sep-03 02:34N 35°34' E 140°01'0 0.0
2014-Sep-03 01:33N 35°34' E 140°01'8 8.2
2014-Sep-03 00:33N 35°29' E 139°53'9 8.9
2014-Sep-02 23:34N 35°23' E 139°45'9 8.6
2014-Sep-02 22:34N 35°14' E 139°47'9 8.6
2014-Sep-02 21:33N 35°06' E 139°42'9 9.0
2014-Sep-02 20:34N 35°00' E 139°34'10 9.6
2014-Sep-02 19:30N 34°54' E 139°25'11 9.4
2014-Sep-02 18:21N 34°47' E 139°15'327 7.3
2014-Aug-31 21:21N 33°58' E 132°43'  
2014-Aug-28 15:33N 30°59' E 122°33'15 6.6
2014-Aug-28 13:20N 31°02' E 122°17'31 9.6
2014-Aug-28 10:08N 31°16' E 121°45'712.2
2014-Aug-28 09:33N 31°21' E 121°39'8 7.7
2014-Aug-28 08:33N 31°22' E 121°30'1 1.2
2014-Aug-28 07:33N 31°21' E 121°31'0 0.0
2014-Aug-28 06:21N 31°21' E 121°31'0 0.0
2014-Aug-28 05:33N 31°21' E 121°31'0 0.0
2014-Aug-28 04:30N 31°21' E 121°31'0 0.0
2014-Aug-28 03:18N 31°21' E 121°31'0 0.0
2014-Aug-28 02:33N 31°21' E 121°31'0 0.0
2014-Aug-28 01:33N 31°21' E 121°31'0 0.0
2014-Aug-28 00:32N 31°21' E 121°31'0 0.0
2014-Aug-27 23:26N 31°21' E 121°31'0 0.0
2014-Aug-27 22:32N 31°21' E 121°31'0 0.0
2014-Aug-27 21:33N 31°21' E 121°31'0 0.0
2014-Aug-27 20:32N 31°21' E 121°31'3 2.9
2014-Aug-27 19:33N 31°24' E 121°32'10 9.4
2014-Aug-27 18:32N 31°20' E 121°42'1111.0
2014-Aug-27 17:31N 31°11' E 121°50'2210.4
2014-Aug-27 15:24N 31°03' E 122°14'8 8.2
2014-Aug-27 14:29N 30°59' E 122°22'0 0.1
2014-Aug-27 13:33N 30°59' E 122°22'0 0.0
2014-Aug-27 12:28N 30°59' E 122°22'5 5.2
2014-Aug-27 11:33N 30°55' E 122°20'7 6.9
2014-Aug-27 10:33N 30°48' E 122°18'7 6.5
2014-Aug-27 09:33N 30°42' E 122°16'7 7.2
2014-Aug-27 08:33N 30°35' E 122°13'28 8.8
2014-Aug-27 05:19N 30°15' E 121°49'1210.7
2014-Aug-27 04:12N 30°03' E 121°48'5 8.1
2014-Aug-27 03:33N 29°59' E 121°45'1 0.1
2014-Aug-26 04:21N 29°59' E 121°47'2 2.6
2014-Aug-26 03:33N 30°01' E 121°46'0 0.0
2014-Aug-26 02:15N 30°01' E 121°46'0 0.0
2014-Aug-26 01:27N 30°01' E 121°46'0 0.1
2014-Aug-26 00:15N 30°01' E 121°46'0 0.1
2014-Aug-25 23:27N 30°01' E 121°46'0 0.0
2014-Aug-25 20:15N 30°01' E 121°46'0 0.0
2014-Aug-25 19:09N 30°01' E 121°46'0 0.0
2014-Aug-25 16:33N 30°01' E 121°46'0 0.0
2014-Aug-25 15:15N 30°01' E 121°46'0 0.0
2014-Aug-25 14:33N 30°01' E 121°46'0 0.0
2014-Aug-25 13:33N 30°01' E 121°46'0 0.0
2014-Aug-25 12:15N 30°01' E 121°46'0 0.0
2014-Aug-25 11:09N 30°01' E 121°46'0 0.0
2014-Aug-25 02:30N 30°01' E 121°46'0 0.0
2014-Aug-25 01:30N 30°01' E 121°46'0 0.0
2014-Aug-25 00:24N 30°01' E 121°46'0 0.0
2014-Aug-24 23:29N 30°01' E 121°46'0 0.0
2014-Aug-24 15:33N 30°01' E 121°46'0 0.0
2014-Aug-24 14:33N 30°01' E 121°46'0 0.0
2014-Aug-24 13:33N 30°01' E 121°46'0 0.0
2014-Aug-24 12:33N 30°01' E 121°46'0 0.0
2014-Aug-24 11:32N 30°01' E 121°46'0 0.1
2014-Aug-24 10:32N 30°01' E 121°46'0 0.0
2014-Aug-24 08:14N 30°01' E 121°46'0 0.0
2014-Aug-24 07:32N 30°01' E 121°46'  
Track history (hours):
 
Tides and Currents Weather Stations Pressure Air Temp Water Temp Dewpoint Dewpoint Depression Visibility Wind Speed Wind Dir Waves Ship Positions

Sheng Jia 1

Last reported at 2014-Sep-03 06:33 UTC. Time now 2014-Sep-03 07:06 UTC.
Position N 35°34' E 140°00'.

Length 73 m; draft 3.5 m.

Type: Cargo ship. MMSI: 515744000.

Date/timePositionNaut miles runAvg speedWind from/ knotsBaromVisibWave heightAir tempDewpointWater temp
2014-Sep-03 06:33N 35°34' E 140°00'0 0.0
2014-Sep-03 05:33N 35°34' E 140°00'0 0.0
2014-Sep-03 04:33N 35°34' E 140°00'0 0.0
2014-Sep-03 03:33N 35°34' E 140°01'0 0.0
2014-Sep-03 02:34N 35°34' E 140°01'0 0.0
2014-Sep-03 01:33N 35°34' E 140°01'8 8.2
2014-Sep-03 00:33N 35°29' E 139°53'9 8.9
2014-Sep-02 23:34N 35°23' E 139°45'9 8.6
2014-Sep-02 22:34N 35°14' E 139°47'9 8.6
2014-Sep-02 21:33N 35°06' E 139°42'9 9.0
2014-Sep-02 20:34N 35°00' E 139°34'10 9.6
2014-Sep-02 19:30N 34°54' E 139°25'11 9.4
2014-Sep-02 18:21N 34°47' E 139°15'327 7.3
2014-Aug-31 21:21N 33°58' E 132°43'  
2014-Aug-28 15:33N 30°59' E 122°33'15 6.6
2014-Aug-28 13:20N 31°02' E 122°17'31 9.6
2014-Aug-28 10:08N 31°16' E 121°45'712.2
2014-Aug-28 09:33N 31°21' E 121°39'8 7.7
2014-Aug-28 08:33N 31°22' E 121°30'1 1.2
2014-Aug-28 07:33N 31°21' E 121°31'0 0.0
2014-Aug-28 06:21N 31°21' E 121°31'0 0.0
2014-Aug-28 05:33N 31°21' E 121°31'0 0.0
2014-Aug-28 04:30N 31°21' E 121°31'0 0.0
2014-Aug-28 03:18N 31°21' E 121°31'0 0.0
2014-Aug-28 02:33N 31°21' E 121°31'0 0.0
2014-Aug-28 01:33N 31°21' E 121°31'0 0.0
2014-Aug-28 00:32N 31°21' E 121°31'0 0.0
2014-Aug-27 23:26N 31°21' E 121°31'0 0.0
2014-Aug-27 22:32N 31°21' E 121°31'0 0.0
2014-Aug-27 21:33N 31°21' E 121°31'0 0.0
2014-Aug-27 20:32N 31°21' E 121°31'3 2.9
2014-Aug-27 19:33N 31°24' E 121°32'10 9.4
2014-Aug-27 18:32N 31°20' E 121°42'1111.0
2014-Aug-27 17:31N 31°11' E 121°50'2210.4
2014-Aug-27 15:24N 31°03' E 122°14'8 8.2
2014-Aug-27 14:29N 30°59' E 122°22'0 0.1
2014-Aug-27 13:33N 30°59' E 122°22'0 0.0
2014-Aug-27 12:28N 30°59' E 122°22'5 5.2
2014-Aug-27 11:33N 30°55' E 122°20'7 6.9
2014-Aug-27 10:33N 30°48' E 122°18'7 6.5
2014-Aug-27 09:33N 30°42' E 122°16'7 7.2
2014-Aug-27 08:33N 30°35' E 122°13'28 8.8
2014-Aug-27 05:19N 30°15' E 121°49'1210.7
2014-Aug-27 04:12N 30°03' E 121°48'5 8.1
2014-Aug-27 03:33N 29°59' E 121°45'1 0.1
2014-Aug-26 04:21N 29°59' E 121°47'2 2.6
2014-Aug-26 03:33N 30°01' E 121°46'0 0.0
2014-Aug-26 02:15N 30°01' E 121°46'0 0.0
2014-Aug-26 01:27N 30°01' E 121°46'0 0.1
2014-Aug-26 00:15N 30°01' E 121°46'0 0.1
2014-Aug-25 23:27N 30°01' E 121°46'0 0.0
2014-Aug-25 20:15N 30°01' E 121°46'0 0.0
2014-Aug-25 19:09N 30°01' E 121°46'0 0.0
2014-Aug-25 16:33N 30°01' E 121°46'0 0.0
2014-Aug-25 15:15N 30°01' E 121°46'0 0.0
2014-Aug-25 14:33N 30°01' E 121°46'0 0.0
2014-Aug-25 13:33N 30°01' E 121°46'0 0.0
2014-Aug-25 12:15N 30°01' E 121°46'0 0.0
2014-Aug-25 11:09N 30°01' E 121°46'0 0.0
2014-Aug-25 02:30N 30°01' E 121°46'0 0.0
2014-Aug-25 01:30N 30°01' E 121°46'0 0.0
2014-Aug-25 00:24N 30°01' E 121°46'0 0.0
2014-Aug-24 23:29N 30°01' E 121°46'0 0.0
2014-Aug-24 15:33N 30°01' E 121°46'0 0.0
2014-Aug-24 14:33N 30°01' E 121°46'0 0.0
2014-Aug-24 13:33N 30°01' E 121°46'0 0.0
2014-Aug-24 12:33N 30°01' E 121°46'0 0.0
2014-Aug-24 11:32N 30°01' E 121°46'0 0.1
2014-Aug-24 10:32N 30°01' E 121°46'0 0.0
2014-Aug-24 08:14N 30°01' E 121°46'0 0.0
2014-Aug-24 07:32N 30°01' E 121°46'  

Dump ship's entire track history